Time;durP1;ratioP1;P1;durP2;ratioP2;P2;SDS_P1;SDS_P2;PMS_P1;PMS_P2;Temp;Humidity;BMP_temperature;BMP_pressure;BME280_temperature;BME280_humidity;BME280_pressure;Samples;Min_cycle;Max_cycle;Signal;HPM_P1;HPM_P2
2023/03/03 00:00:36;;;;;;;109.23;19.03;;;2.50;99.90;;;;;;5096705;28;20396;-82
2023/03/03 00:03:07;;;;;;;84.27;17.03;;;2.60;99.90;;;;;;5096591;28;20127;-82
2023/03/03 00:05:33;;;;;;;104.70;15.90;;;2.50;99.90;;;;;;5096627;28;20127;-82
2023/03/03 00:07:59;;;;;;;56.05;14.73;;;2.50;99.90;;;;;;5096145;28;20518;-82
2023/03/03 00:10:25;;;;;;;113.50;15.45;;;2.50;99.90;;;;;;5095433;28;20048;-82
2023/03/03 00:12:51;;;;;;;327.80;17.87;;;2.50;99.90;;;;;;5096436;28;20131;-82
2023/03/03 00:15:24;;;;;;;212.10;16.07;;;2.40;99.90;;;;;;5095187;28;20508;-82
2023/03/03 00:17:51;;;;;;;105.25;13.85;;;2.30;99.90;;;;;;5095127;28;20472;-82
2023/03/03 00:20:36;;;;;;;128.55;13.43;;;2.30;99.90;;;;;;5094863;28;20041;-82
2023/03/03 00:23:27;;;;;;;194.52;15.75;;;2.30;99.90;;;;;;5094967;28;20040;-82
2023/03/03 00:25:53;;;;;;;116.13;14.80;;;2.20;99.90;;;;;;5096023;28;20067;-82
2023/03/03 00:28:22;;;;;;;139.13;13.40;;;2.10;99.90;;;;;;5095967;28;20455;-82
2023/03/03 00:30:48;;;;;;;266.02;18.15;;;2.10;99.90;;;;;;5094880;28;20109;-81
2023/03/03 00:33:33;;;;;;;198.77;16.63;;;2.10;99.90;;;;;;5096176;28;20052;-82
2023/03/03 00:36:14;;;;;;;126.82;14.93;;;2.10;99.90;;;;;;5096362;28;20052;-82
2023/03/03 00:38:41;;;;;;;237.77;18.50;;;2.10;99.90;;;;;;5095534;28;20048;-82
2023/03/03 00:41:22;;;;;;;70.82;14.50;;;2.20;99.90;;;;;;5095698;28;20051;-83
2023/03/03 00:43:49;;;;;;;63.55;14.07;;;2.30;99.90;;;;;;5095771;28;20055;-82
2023/03/03 00:46:24;;;;;;;136.75;14.45;;;2.30;99.90;;;;;;5094200;28;20509;-83
2023/03/03 00:48:50;;;;;;;57.92;13.25;;;2.30;99.90;;;;;;5078520;28;20048;-82
2023/03/03 00:51:21;;;;;;;67.45;13.15;;;2.30;99.90;;;;;;5095588;28;20133;-83
2023/03/03 00:53:48;;;;;;;77.07;12.93;;;2.30;99.90;;;;;;5095669;28;20040;-83
2023/03/03 00:56:14;;;;;;;43.45;11.98;;;2.30;99.90;;;;;;5094247;28;20483;-82
2023/03/03 00:58:39;;;;;;;59.40;12.27;;;2.40;99.90;;;;;;5094466;28;20059;-82
2023/03/03 01:01:05;;;;;;;55.93;11.87;;;2.40;99.90;;;;;;5095292;28;20086;-82
2023/03/03 01:03:31;;;;;;;92.33;13.17;;;2.40;99.90;;;;;;5095299;28;20040;-83
2023/03/03 01:05:57;;;;;;;50.70;12.67;;;2.30;99.90;;;;;;5095298;28;20101;-82
2023/03/03 01:08:24;;;;;;;50.30;11.55;;;2.30;99.90;;;;;;5076856;28;20290;-83
2023/03/03 01:10:52;;;;;;;33.33;11.35;;;2.30;99.90;;;;;;5044129;28;20192;-82
2023/03/03 01:13:20;;;;;;;47.08;9.82;;;2.30;99.90;;;;;;5095021;28;20040;-82
2023/03/03 01:15:46;;;;;;;24.67;9.70;;;2.30;99.90;;;;;;5095134;28;20040;-82
2023/03/03 01:18:12;;;;;;;54.43;11.23;;;2.30;99.90;;;;;;5095462;28;20157;-82
2023/03/03 01:20:39;;;;;;;34.97;10.98;;;2.40;99.90;;;;;;5094958;28;20048;-82
2023/03/03 01:23:05;;;;;;;45.22;10.80;;;2.40;99.90;;;;;;5094875;28;20047;-82
2023/03/03 01:25:31;;;;;;;38.92;9.95;;;2.40;99.90;;;;;;5094890;28;20145;-82
2023/03/03 01:27:57;;;;;;;58.70;10.53;;;2.30;99.90;;;;;;5094498;28;20471;-82
2023/03/03 01:30:23;;;;;;;54.95;9.73;;;2.20;99.90;;;;;;5093585;28;20396;-82
2023/03/03 01:32:48;;;;;;;60.57;10.97;;;2.20;99.90;;;;;;5094501;28;20052;-82
2023/03/03 01:35:14;;;;;;;164.73;13.83;;;2.20;99.90;;;;;;5093670;28;20056;-83
2023/03/03 01:37:40;;;;;;;52.97;11.77;;;2.20;99.90;;;;;;5094647;28;20047;-82
2023/03/03 01:40:12;;;;;;;72.80;10.93;;;2.20;99.90;;;;;;5076766;28;20048;-82
2023/03/03 01:42:38;;;;;;;59.47;10.80;;;2.20;99.90;;;;;;5094861;28;20040;-77
2023/03/03 01:45:23;;;;;;;48.93;10.93;;;2.20;99.90;;;;;;5094211;28;20062;-82
2023/03/03 01:48:13;;;;;;;62.47;11.50;;;2.10;99.90;;;;;;5094417;28;20044;-82
2023/03/03 01:50:47;;;;;;;38.20;10.88;;;2.10;99.90;;;;;;5094521;28;20040;-78
2023/03/03 01:53:20;;;;;;;29.05;8.75;;;2.10;99.90;;;;;;5094402;28;20040;-82
2023/03/03 01:55:48;;;;;;;33.88;11.43;;;2.10;99.90;;;;;;5094802;28;20106;-83
2023/03/03 01:58:21;;;;;;;26.17;10.82;;;2.00;99.90;;;;;;5094788;28;20105;-83
2023/03/03 02:00:52;;;;;;;23.77;11.48;;;1.90;99.90;;;;;;5093470;28;20051;-83
2023/03/03 02:03:21;;;;;;;30.00;11.93;;;1.90;99.90;;;;;;5093366;28;20136;-84
2023/03/03 02:05:48;;;;;;;22.42;10.95;;;1.90;99.90;;;;;;5094145;28;20083;-83
2023/03/03 02:08:19;;;;;;;13.52;10.20;;;1.90;99.90;;;;;;5094272;28;20081;-83
2023/03/03 02:10:45;;;;;;;12.85;9.50;;;1.90;99.90;;;;;;5094153;28;20463;-82
2023/03/03 02:13:12;;;;;;;16.65;10.10;;;1.80;99.90;;;;;;5092803;28;20047;-83
2023/03/03 02:15:39;;;;;;;11.63;9.38;;;1.90;99.90;;;;;;5093073;28;20040;-83
2023/03/03 02:18:14;;;;;;;13.52;9.20;;;1.80;99.90;;;;;;5099261;28;20503;-83
2023/03/03 02:20:49;;;;;;;10.45;8.90;;;1.70;99.90;;;;;;5094554;28;20043;-83
2023/03/03 02:23:33;;;;;;;11.45;8.18;;;1.80;99.90;;;;;;5094152;28;20086;-83
2023/03/03 02:26:06;;;;;;;10.35;8.18;;;1.70;99.90;;;;;;5094024;28;20058;-84
2023/03/03 02:28:33;;;;;;;10.88;8.50;;;1.70;99.90;;;;;;5094128;28;20590;-83
2023/03/03 02:31:00;;;;;;;11.18;8.95;;;1.70;99.90;;;;;;5093143;28;20376;-83
2023/03/03 02:33:27;;;;;;;11.82;9.38;;;1.70;99.90;;;;;;5093531;28;20056;-83
2023/03/03 02:35:53;;;;;;;11.05;9.05;;;1.70;99.90;;;;;;5093726;28;20593;-83
2023/03/03 02:38:29;;;;;;;12.60;9.25;;;1.70;99.90;;;;;;5093766;28;20131;-83
2023/03/03 02:41:14;;;;;;;11.50;8.80;;;1.70;99.90;;;;;;5093594;28;20476;-83
2023/03/03 02:43:58;;;;;;;9.40;7.80;;;1.70;99.90;;;;;;5093552;28;20131;-83
2023/03/03 02:46:24;;;;;;;9.48;7.80;;;1.70;99.90;;;;;;5092602;28;20044;-83
2023/03/03 02:48:50;;;;;;;10.93;9.02;;;1.70;99.90;;;;;;5093662;28;20048;-83
2023/03/03 02:51:16;;;;;;;13.73;9.00;;;1.70;99.90;;;;;;5092381;28;20487;-83
2023/03/03 02:53:42;;;;;;;10.97;9.00;;;1.70;99.90;;;;;;5093995;28;20086;-83
2023/03/03 02:56:08;;;;;;;11.27;9.10;;;1.60;99.90;;;;;;5097666;28;20126;-83
2023/03/03 02:58:35;;;;;;;10.52;8.60;;;1.60;99.90;;;;;;5097548;28;20040;-83
2023/03/03 03:01:01;;;;;;;9.95;8.32;;;1.60;99.90;;;;;;5097189;28;20127;-83
2023/03/03 03:03:27;;;;;;;12.07;9.57;;;1.60;99.90;;;;;;5097644;28;20055;-83
2023/03/03 03:05:53;;;;;;;10.55;8.55;;;1.60;99.90;;;;;;5097485;28;20553;-84
2023/03/03 03:08:19;;;;;;;10.23;8.70;;;1.70;99.90;;;;;;5096402;28;20083;-84
2023/03/03 03:10:44;;;;;;;11.63;9.47;;;1.60;99.90;;;;;;5097553;28;20048;-83
2023/03/03 03:13:10;;;;;;;12.17;9.63;;;1.50;99.90;;;;;;5097348;28;20036;-83
2023/03/03 03:15:36;;;;;;;12.00;9.30;;;1.50;99.90;;;;;;5097975;28;20137;-83
2023/03/03 03:18:03;;;;;;;11.55;9.35;;;1.60;99.90;;;;;;5097260;28;20044;-83
2023/03/03 03:20:28;;;;;;;10.75;8.90;;;1.60;99.90;;;;;;5097330;28;20083;-83
2023/03/03 03:22:54;;;;;;;10.43;8.60;;;1.50;99.90;;;;;;5096143;28;20138;-83
2023/03/03 03:25:20;;;;;;;11.70;8.63;;;1.60;99.90;;;;;;5079307;28;20098;-83
2023/03/03 03:27:46;;;;;;;8.80;7.13;;;1.60;99.90;;;;;;5095959;28;20083;-83
2023/03/03 03:30:12;;;;;;;10.53;8.00;;;1.60;99.90;;;;;;5097337;28;20076;-82
2023/03/03 03:32:38;;;;;;;9.65;7.60;;;1.60;99.90;;;;;;5096685;28;20052;-83
2023/03/03 03:35:04;;;;;;;9.35;7.97;;;1.50;99.90;;;;;;5097526;28;20139;-83
2023/03/03 03:37:30;;;;;;;8.68;7.45;;;1.60;99.90;;;;;;5096987;28;20131;-84
2023/03/03 03:39:56;;;;;;;8.93;7.17;;;1.50;99.90;;;;;;5095904;28;20083;-84
2023/03/03 03:42:21;;;;;;;9.40;6.97;;;1.50;99.90;;;;;;5078713;28;20101;-83
2023/03/03 03:44:47;;;;;;;8.80;7.30;;;1.50;99.90;;;;;;5096587;28;20046;-84
2023/03/03 03:47:13;;;;;;;9.30;7.43;;;1.50;99.90;;;;;;5095743;28;20107;-84
2023/03/03 03:49:38;;;;;;;8.30;7.13;;;1.50;99.90;;;;;;5097042;28;20043;-83
2023/03/03 03:52:04;;;;;;;8.83;7.53;;;1.50;99.90;;;;;;5097402;28;20036;-83
2023/03/03 03:54:30;;;;;;;8.40;6.97;;;1.50;99.90;;;;;;5097157;28;20396;-83
2023/03/03 03:56:55;;;;;;;9.00;7.83;;;1.50;99.90;;;;;;5096327;28;20047;-81
2023/03/03 03:59:21;;;;;;;9.47;7.83;;;1.50;99.90;;;;;;5095996;28;20119;-83
2023/03/03 04:01:48;;;;;;;8.98;7.63;;;1.50;99.90;;;;;;5096382;28;20048;-82
2023/03/03 04:04:15;;;;;;;9.40;7.88;;;1.40;99.90;;;;;;5095474;28;20044;-83
2023/03/03 04:06:40;;;;;;;9.65;8.10;;;1.40;99.90;;;;;;5096012;28;20051;-82
2023/03/03 04:09:06;;;;;;;9.87;8.00;;;1.40;99.90;;;;;;5096047;28;20399;-82
2023/03/03 04:11:32;;;;;;;9.70;7.57;;;1.30;99.90;;;;;;5078148;28;20140;-81
2023/03/03 04:13:58;;;;;;;9.53;7.60;;;1.30;99.90;;;;;;5094898;28;20044;-80
2023/03/03 04:16:23;;;;;;;11.53;8.00;;;1.30;99.90;;;;;;5095869;28;20044;-82
2023/03/03 04:18:49;;;;;;;9.73;7.70;;;1.30;99.90;;;;;;5096542;28;20040;-83
2023/03/03 04:21:15;;;;;;;9.80;8.07;;;1.20;99.90;;;;;;5096121;28;20051;-83
2023/03/03 04:23:41;;;;;;;9.35;7.25;;;1.20;99.90;;;;;;5096099;28;20036;-82
2023/03/03 04:26:08;;;;;;;9.57;8.20;;;1.20;99.90;;;;;;5096447;28;20478;-82
2023/03/03 04:28:34;;;;;;;8.98;7.07;;;1.20;99.90;;;;;;5096742;28;20362;-82
2023/03/03 04:30:59;;;;;;;9.30;7.10;;;1.20;99.90;;;;;;5094199;28;20077;-81
2023/03/03 04:33:25;;;;;;;9.20;7.47;;;1.20;99.90;;;;;;5094645;28;20055;-82
2023/03/03 04:35:51;;;;;;;11.00;6.70;;;1.20;99.90;;;;;;5095868;28;20392;-83
2023/03/03 04:38:17;;;;;;;8.67;7.20;;;1.20;99.90;;;;;;5094779;28;20111;-82
2023/03/03 04:40:43;;;;;;;8.60;6.80;;;1.10;99.90;;;;;;5094584;28;20148;-83
2023/03/03 04:43:09;;;;;;;8.50;6.87;;;1.10;99.90;;;;;;5094766;28;20296;-83
2023/03/03 04:45:36;;;;;;;8.77;6.88;;;1.10;99.90;;;;;;5095929;28;20048;-83
2023/03/03 04:48:02;;;;;;;7.63;6.47;;;1.10;99.90;;;;;;5095565;28;20118;-82
2023/03/03 04:50:28;;;;;;;8.35;6.32;;;1.10;99.90;;;;;;5094448;28;20361;-83
2023/03/03 04:52:53;;;;;;;7.43;6.23;;;1.10;99.90;;;;;;5094299;28;20105;-83
2023/03/03 04:55:19;;;;;;;8.03;6.83;;;1.00;99.90;;;;;;5078347;28;20131;-82
2023/03/03 04:57:45;;;;;;;8.47;6.70;;;1.10;99.90;;;;;;5095441;28;20047;-83
2023/03/03 05:00:14;;;;;;;8.20;6.53;;;1.10;99.90;;;;;;5095387;28;20396;-82
2023/03/03 05:02:40;;;;;;;7.72;6.50;;;1.00;99.90;;;;;;5095291;28;20097;-82
2023/03/03 05:05:08;;;;;;;9.20;6.77;;;1.00;99.90;;;;;;5095455;28;20048;-82
2023/03/03 05:07:34;;;;;;;9.05;6.93;;;0.90;99.90;;;;;;5095252;28;20082;-82
2023/03/03 05:10:00;;;;;;;9.30;6.90;;;0.90;99.90;;;;;;5095892;28;20079;-83
2023/03/03 05:12:26;;;;;;;10.00;7.60;;;0.90;99.90;;;;;;5095297;28;20517;-83
2023/03/03 05:14:52;;;;;;;8.55;6.55;;;0.90;99.90;;;;;;5093912;28;20278;-82
2023/03/03 05:17:18;;;;;;;10.07;6.63;;;0.90;99.90;;;;;;5094809;28;20096;-82
2023/03/03 05:19:43;;;;;;;8.40;6.60;;;0.90;99.90;;;;;;5093704;28;20135;-82
2023/03/03 05:22:09;;;;;;;9.53;6.77;;;0.90;99.90;;;;;;5094931;28;20044;-81
2023/03/03 05:24:35;;;;;;;9.03;6.80;;;0.90;99.90;;;;;;5093620;28;20386;-81
2023/03/03 05:27:02;;;;;;;10.47;7.43;;;0.90;99.90;;;;;;5094650;28;20044;-82
2023/03/03 05:29:30;;;;;;;9.13;6.63;;;1.00;99.90;;;;;;5094024;28;20360;-81
2023/03/03 05:31:57;;;;;;;7.78;6.25;;;0.90;99.90;;;;;;5093603;28;20047;-82
2023/03/03 05:34:23;;;;;;;9.88;5.82;;;0.80;99.90;;;;;;5094778;28;20523;-82
2023/03/03 05:36:49;;;;;;;10.00;7.07;;;0.90;99.90;;;;;;5093684;28;20051;-82
2023/03/03 05:39:14;;;;;;;11.40;6.73;;;1.00;99.90;;;;;;5095467;28;20039;-82
2023/03/03 05:41:40;;;;;;;9.50;7.17;;;0.90;99.90;;;;;;5094507;28;20109;-82
2023/03/03 05:44:06;;;;;;;9.90;6.80;;;0.90;99.90;;;;;;5094506;28;20126;-82
2023/03/03 05:46:32;;;;;;;8.80;6.85;;;0.90;99.90;;;;;;5093482;28;20099;-82
2023/03/03 05:48:58;;;;;;;9.43;6.63;;;1.00;99.90;;;;;;5094470;28;20047;-82
2023/03/03 05:51:23;;;;;;;10.10;6.37;;;1.00;99.90;;;;;;5094364;28;20048;-82
2023/03/03 05:53:49;;;;;;;9.60;6.57;;;1.00;99.90;;;;;;5094297;28;20048;-82
2023/03/03 05:56:15;;;;;;;8.10;6.70;;;1.00;99.90;;;;;;5094262;28;20040;-82
2023/03/03 05:58:41;;;;;;;7.53;6.00;;;0.90;99.90;;;;;;5094817;28;20040;-81
2023/03/03 06:01:06;;;;;;;9.30;7.27;;;1.00;99.90;;;;;;5094138;28;20048;-83
2023/03/03 06:03:32;;;;;;;7.57;6.37;;;0.90;99.90;;;;;;5093211;28;20048;-82
2023/03/03 06:05:58;;;;;;;9.53;6.40;;;0.90;99.90;;;;;;5094305;28;20044;-81
2023/03/03 06:08:24;;;;;;;8.20;5.87;;;0.90;99.90;;;;;;5094162;28;20051;-81
2023/03/03 06:10:49;;;;;;;8.53;6.03;;;0.90;99.90;;;;;;5094199;28;20052;-82
2023/03/03 06:13:15;;;;;;;8.10;6.27;;;0.90;99.90;;;;;;5092851;28;20047;-82
2023/03/03 06:15:41;;;;;;;10.83;6.47;;;0.90;99.90;;;;;;5093979;28;20036;-82
2023/03/03 06:18:07;;;;;;;8.37;6.03;;;0.90;99.90;;;;;;5093978;28;20126;-82
2023/03/03 06:20:34;;;;;;;10.10;6.17;;;0.90;99.90;;;;;;5092781;28;20044;-81
2023/03/03 06:23:00;;;;;;;8.57;5.97;;;0.90;99.90;;;;;;5093823;28;20040;-81
2023/03/03 06:25:26;;;;;;;10.90;6.83;;;0.90;99.90;;;;;;5092039;28;20143;-81
2023/03/03 06:27:51;;;;;;;8.63;6.13;;;0.80;99.90;;;;;;5093303;28;20048;-81
2023/03/03 06:30:17;;;;;;;10.27;6.80;;;0.80;99.90;;;;;;5093955;28;20052;-81
2023/03/03 06:32:44;;;;;;;10.18;6.50;;;0.80;99.90;;;;;;5092388;28;20108;-81
2023/03/03 06:35:10;;;;;;;9.05;5.70;;;0.80;99.90;;;;;;5096509;28;20048;-81
2023/03/03 06:37:35;;;;;;;9.77;6.13;;;0.80;99.90;;;;;;5093938;28;20149;-81
2023/03/03 06:40:02;;;;;;;11.93;6.70;;;0.80;99.90;;;;;;5093738;28;20052;-81
2023/03/03 06:42:28;;;;;;;14.05;6.03;;;0.80;99.90;;;;;;5092573;28;20123;-81
2023/03/03 06:44:53;;;;;;;8.27;5.93;;;0.80;99.90;;;;;;5093654;28;20131;-83
2023/03/03 06:47:19;;;;;;;7.30;5.60;;;0.80;99.90;;;;;;5093526;28;20144;-81
2023/03/03 06:49:45;;;;;;;9.37;6.30;;;0.80;99.90;;;;;;5093712;28;20043;-81
2023/03/03 06:52:22;;;;;;;9.57;6.40;;;0.90;99.90;;;;;;5093505;28;20551;-82
2023/03/03 06:54:48;;;;;;;10.85;5.47;;;0.90;99.90;;;;;;5093519;28;20044;-80
2023/03/03 06:57:32;;;;;;;8.38;5.85;;;0.90;99.90;;;;;;5093585;28;20052;-80
2023/03/03 07:00:14;;;;;;;14.20;6.60;;;0.90;99.90;;;;;;5092609;28;20051;-81
2023/03/03 07:02:40;;;;;;;10.25;6.10;;;0.90;99.90;;;;;;5094254;28;20040;-81
2023/03/03 07:05:13;;;;;;;10.67;6.17;;;0.90;99.90;;;;;;5093691;28;20067;-81
2023/03/03 07:07:39;;;;;;;10.23;6.43;;;0.90;99.90;;;;;;5094019;28;20080;-81
2023/03/03 07:10:40;;;;;;;11.30;6.13;;;1.00;99.90;;;;;;5093417;28;20098;-82
2023/03/03 07:13:27;;;;;;;11.68;6.15;;;1.00;99.90;;;;;;5011454;28;20133;-83
2023/03/03 07:15:57;;;;;;;9.40;6.00;;;1.00;99.90;;;;;;5088219;28;20056;-84
2023/03/03 07:18:49;;;;;;;14.45;6.50;;;1.10;99.90;;;;;;5092179;28;20048;-82
2023/03/03 07:21:21;;;;;;;10.90;6.05;;;1.10;99.90;;;;;;5093790;28;20490;-82
2023/03/03 07:23:51;;;;;;;9.25;6.45;;;1.10;99.90;;;;;;5092137;28;20140;-81
2023/03/03 07:26:25;;;;;;;11.20;5.93;;;1.10;99.90;;;;;;5093485;28;20101;-83
2023/03/03 07:28:55;;;;;;;8.95;6.22;;;1.20;99.90;;;;;;5094048;28;20383;-85
2023/03/03 07:31:32;;;;;;;9.10;5.88;;;1.20;99.90;;;;;;5093344;28;20227;-76
2023/03/03 07:34:00;;;;;;;10.55;6.63;;;1.20;99.90;;;;;;5093584;28;20067;-78
2023/03/03 07:36:30;;;;;;;9.68;5.68;;;1.30;99.90;;;;;;5093164;28;20059;-83
2023/03/03 07:39:02;;;;;;;11.95;6.07;;;1.30;99.90;;;;;;5092251;28;20044;-84
2023/03/03 07:41:28;;;;;;;11.63;5.95;;;1.40;99.90;;;;;;5095875;28;20134;-84
2023/03/03 07:44:33;;;;;;;10.75;6.45;;;1.40;99.90;;;;;;5095809;28;20048;-82
2023/03/03 07:47:12;;;;;;;8.20;6.50;;;1.40;99.90;;;;;;5094738;28;20188;-78
2023/03/03 07:49:38;;;;;;;7.70;5.82;;;1.50;99.90;;;;;;5096767;28;20105;-81
2023/03/03 07:52:25;;;;;;;13.03;6.30;;;1.60;99.90;;;;;;5096771;28;20134;-81
2023/03/03 07:54:52;;;;;;;8.07;5.50;;;1.60;99.90;;;;;;5096720;28;20052;-81
2023/03/03 07:57:35;;;;;;;9.65;5.95;;;1.80;99.90;;;;;;5095473;28;20051;-81
2023/03/03 08:00:21;;;;;;;10.10;5.97;;;1.80;99.90;;;;;;5097435;28;20397;-81
2023/03/03 08:03:01;;;;;;;11.23;5.70;;;1.90;99.90;;;;;;5096864;28;20388;-81
2023/03/03 08:05:33;;;;;;;8.52;5.43;;;2.10;99.90;;;;;;5097042;28;20085;-81
2023/03/03 08:08:19;;;;;;;8.38;5.50;;;2.20;99.90;;;;;;5096662;28;20086;-82
2023/03/03 08:10:50;;;;;;;9.05;5.25;;;2.40;99.90;;;;;;5095828;28;20055;-81
2023/03/03 08:13:19;;;;;;;11.98;5.07;;;2.50;99.90;;;;;;5096326;28;20110;-81
2023/03/03 08:15:48;;;;;;;7.07;4.03;;;2.60;99.90;;;;;;5096300;28;20472;-81
2023/03/03 08:18:22;;;;;;;10.15;4.70;;;2.70;99.90;;;;;;5096174;28;20048;-82
2023/03/03 08:20:57;;;;;;;8.73;4.32;;;2.80;99.90;;;;;;5095161;28;20055;-82
2023/03/03 08:23:22;;;;;;;8.40;3.95;;;2.80;99.90;;;;;;5095142;28;20200;-82
2023/03/03 08:25:50;;;;;;;10.63;4.37;;;2.90;99.90;;;;;;5096952;28;20083;-83
2023/03/03 08:28:16;;;;;;;9.77;3.92;;;2.90;99.90;;;;;;5096230;28;20059;-83
2023/03/03 08:30:43;;;;;;;10.00;3.67;;;3.00;99.90;;;;;;5096559;28;20127;-83
2023/03/03 08:33:09;;;;;;;11.15;2.78;;;3.20;99.90;;;;;;5095788;28;20476;-83
2023/03/03 08:35:35;;;;;;;8.48;2.70;;;3.30;99.90;;;;;;5096599;28;20341;-83
2023/03/03 08:38:01;;;;;;;5.95;2.38;;;3.40;99.90;;;;;;5096007;28;20052;-83
2023/03/03 08:40:27;;;;;;;5.53;2.75;;;3.50;99.90;;;;;;5095163;28;20040;-83
2023/03/03 08:42:53;;;;;;;5.17;2.30;;;3.60;99.90;;;;;;5096093;28;20431;-84
2023/03/03 08:45:19;;;;;;;8.03;2.97;;;3.70;99.90;;;;;;5094931;28;20101;-83
2023/03/03 08:47:45;;;;;;;11.07;2.90;;;3.80;99.90;;;;;;5097581;28;20044;-83
2023/03/03 08:50:11;;;;;;;5.63;2.20;;;4.00;99.90;;;;;;5096664;28;20128;-83
2023/03/03 08:52:37;;;;;;;8.50;2.90;;;4.20;99.90;;;;;;5094872;28;20040;-83
2023/03/03 08:55:03;;;;;;;6.27;2.73;;;4.30;99.90;;;;;;5094640;28;20490;-84
2023/03/03 08:57:29;;;;;;;8.63;2.28;;;4.40;99.90;;;;;;5095492;28;20040;-84
2023/03/03 08:59:55;;;;;;;9.77;2.67;;;4.50;99.90;;;;;;5077828;28;20063;-83
2023/03/03 09:02:20;;;;;;;9.47;2.60;;;4.60;99.90;;;;;;5095477;28;20040;-84
2023/03/03 09:04:46;;;;;;;4.77;2.17;;;4.60;99.90;;;;;;5093719;28;20134;-83
2023/03/03 09:07:12;;;;;;;6.77;2.53;;;4.70;99.90;;;;;;5095339;28;20285;-83
2023/03/03 09:09:38;;;;;;;10.10;2.80;;;4.70;99.90;;;;;;5094038;28;20121;-83
2023/03/03 09:12:17;;;;;;;6.25;1.98;;;4.70;99.90;;;;;;5095298;28;20056;-83
2023/03/03 09:14:43;;;;;;;7.25;2.75;;;4.70;99.90;;;;;;5096041;28;20039;-83
2023/03/03 09:17:32;;;;;;;7.78;2.08;;;4.70;99.90;;;;;;5094882;28;20048;-83
2023/03/03 09:20:10;;;;;;;9.00;3.38;;;4.80;99.90;;;;;;5094900;28;20557;-83
2023/03/03 09:22:36;;;;;;;8.40;2.30;;;4.80;99.90;;;;;;5095078;28;20135;-83
2023/03/03 09:25:21;;;;;;;8.35;2.20;;;4.90;99.90;;;;;;5094923;28;20052;-83
2023/03/03 09:27:47;;;;;;;8.38;2.22;;;4.90;99.90;;;;;;5094975;28;20097;-83
2023/03/03 09:30:25;;;;;;;7.43;3.20;;;5.00;99.90;;;;;;5094992;28;20047;-83
2023/03/03 09:32:51;;;;;;;7.97;2.08;;;5.10;99.90;;;;;;5076880;28;20111;-83
2023/03/03 09:35:37;;;;;;;4.60;1.48;;;5.20;99.90;;;;;;5094858;28;20054;-82
2023/03/03 09:38:27;;;;;;;4.50;1.50;;;5.30;99.90;;;;;;5093972;28;20091;-83
2023/03/03 09:41:32;;;;;;;9.40;1.90;;;5.50;99.90;;;;;;5094609;28;20542;-82
2023/03/03 09:44:27;;;;;;;7.05;2.55;;;5.60;99.90;;;;;;5077607;28;20040;-83
2023/03/03 09:47:04;;;;;;;4.45;0.90;;;5.80;99.90;;;;;;5094622;28;20056;-82
2023/03/03 09:49:38;;;;;;;3.60;1.20;;;6.10;99.90;;;;;;5094389;28;20140;-83
2023/03/03 09:52:28;;;;;;;5.43;1.10;;;6.20;99.90;;;;;;5094616;28;20051;-81
2023/03/03 09:55:29;;;;;;;10.45;1.80;;;6.40;99.90;;;;;;5094486;28;20044;-83
2023/03/03 09:58:10;;;;;;;5.32;1.30;;;6.50;99.90;;;;;;5094218;28;20132;-83
2023/03/03 10:00:58;;;;;;;3.70;0.93;;;6.40;99.90;;;;;;5094429;28;20080;-82
2023/03/03 10:03:45;;;;;;;5.68;1.10;;;6.40;99.90;;;;;;5093976;28;20044;-83
2023/03/03 10:06:35;;;;;;;3.28;1.13;;;6.40;99.90;;;;;;5094185;28;20051;-82
2023/03/03 10:09:04;;;;;;;3.90;1.20;;;6.40;99.90;;;;;;5095019;28;20384;-82
2023/03/03 10:11:52;;;;;;;4.90;0.80;;;6.50;99.90;;;;;;5094146;28;20066;-83
2023/03/03 10:14:43;;;;;;;4.13;0.98;;;6.50;99.90;;;;;;5093056;28;20503;-82
2023/03/03 10:17:36;;;;;;;6.93;1.10;;;6.60;99.90;;;;;;5093885;28;20047;-82
2023/03/03 10:20:10;;;;;;;3.83;1.10;;;6.70;99.90;;;;;;5093182;28;20050;-82
2023/03/03 10:22:55;;;;;;;4.50;1.10;;;6.80;99.90;;;;;;5094102;28;20090;-83
2023/03/03 10:25:43;;;;;;;4.72;1.50;;;7.00;99.90;;;;;;5094257;28;20087;-82
2023/03/03 10:28:40;;;;;;;7.85;1.73;;;7.00;99.90;;;;;;5093901;28;20097;-83
2023/03/03 10:31:24;;;;;;;7.07;1.30;;;7.00;99.90;;;;;;5093953;28;20085;-83
2023/03/03 10:34:03;;;;;;;2.72;1.10;;;7.00;99.90;;;;;;5093707;28;20055;-83
2023/03/03 10:36:58;;;;;;;6.70;1.60;;;7.00;99.90;;;;;;5093915;28;20062;-83
2023/03/03 10:39:44;;;;;;;5.28;1.50;;;7.10;99.90;;;;;;5093197;28;20062;-83
2023/03/03 10:42:10;;;;;;;5.70;1.10;;;7.10;99.90;;;;;;5093759;28;20052;-82
2023/03/03 10:44:57;;;;;;;6.37;1.20;;;7.10;99.90;;;;;;5093505;28;20089;-83
2023/03/03 10:47:36;;;;;;;3.95;0.85;;;7.10;99.90;;;;;;5094249;28;20192;-83
2023/03/03 10:50:01;;;;;;;7.43;1.33;;;7.20;99.90;;;;;;5093796;28;20114;-83
2023/03/03 10:52:27;;;;;;;7.60;1.30;;;7.20;99.90;;;;;;5094068;28;20056;-82
2023/03/03 10:55:04;;;;;;;4.03;1.00;;;7.20;99.90;;;;;;5093652;28;20209;-83
2023/03/03 10:57:55;;;;;;;5.93;1.27;;;7.20;99.90;;;;;;5094317;28;20047;-83
2023/03/03 11:00:23;;;;;;;5.35;1.52;;;7.20;99.90;;;;;;5096347;28;20118;-83
2023/03/03 11:03:18;;;;;;;3.70;0.80;;;7.20;99.90;;;;;;5093416;28;20078;-82
2023/03/03 11:06:25;;;;;;;6.50;1.23;;;7.30;99.90;;;;;;5093071;28;20487;-83
2023/03/03 11:09:01;;;;;;;3.25;0.90;;;7.30;99.90;;;;;;5071231;28;20091;-83
2023/03/03 11:11:57;;;;;;;3.88;1.30;;;7.40;99.90;;;;;;5093504;28;20052;-83
2023/03/03 11:14:49;;;;;;;;;;;7.30;99.90;;;;;;5094006;28;20191;-83
2023/03/03 11:17:25;;;;;;;7.10;1.20;;;7.40;99.90;;;;;;5094571;28;20317;-84
2023/03/03 11:20:11;;;;;;;3.60;1.35;;;7.30;99.90;;;;;;5097535;28;20054;-82
2023/03/03 11:22:48;;;;;;;5.07;1.65;;;7.20;99.90;;;;;;5096496;28;20537;-83
2023/03/03 11:25:33;;;;;;;4.47;0.90;;;7.20;99.90;;;;;;5098112;28;20067;-83
2023/03/03 11:28:30;;;;;;;7.55;1.60;;;7.20;99.90;;;;;;5097975;28;20408;-81
2023/03/03 11:30:58;;;;;;;7.17;3.67;;;7.10;99.90;;;;;;5096771;28;20402;-82
2023/03/03 11:34:04;;;;;;;7.70;1.40;;;7.30;99.90;;;;;;5099207;28;20440;-83
2023/03/03 11:36:48;;;;;;;6.78;1.70;;;7.40;99.90;;;;;;5093281;28;20060;-82
2023/03/03 11:39:19;;;;;;;5.70;1.10;;;7.50;99.90;;;;;;5100163;28;20090;-82
2023/03/03 11:41:57;;;;;;;4.93;1.27;;;7.60;99.90;;;;;;5100115;28;20104;-82
2023/03/03 11:44:32;;;;;;;6.03;1.20;;;7.60;99.90;;;;;;5096307;28;20052;-83
2023/03/03 11:47:18;;;;;;;7.07;1.20;;;7.70;99.90;;;;;;5096431;28;20289;-83
2023/03/03 11:50:15;;;;;;;4.65;1.20;;;7.70;99.90;;;;;;5096255;28;20274;-82
2023/03/03 11:53:16;;;;;;;5.23;1.17;;;7.70;99.90;;;;;;5096772;28;20040;-83
2023/03/03 11:55:48;;;;;;;4.57;1.17;;;7.70;99.90;;;;;;5096361;28;20737;-82
2023/03/03 11:58:31;;;;;;;4.67;1.03;;;7.70;99.90;;;;;;5097482;28;20656;-82
2023/03/03 12:01:13;;;;;;;6.63;1.60;;;7.70;99.90;;;;;;5096556;28;20734;-82
2023/03/03 12:03:49;;;;;;;7.10;1.17;;;7.70;99.90;;;;;;5094960;28;20278;-82
2023/03/03 12:06:28;;;;;;;5.13;1.40;;;7.80;99.90;;;;;;5095879;28;20286;-82
2023/03/03 12:09:03;;;;;;;10.70;1.80;;;7.80;99.90;;;;;;5096467;28;20278;-81
2023/03/03 12:12:11;;;;;;;8.98;1.65;;;7.90;99.90;;;;;;5097088;28;20331;-82
2023/03/03 12:14:49;;;;;;;5.70;1.27;;;7.90;99.90;;;;;;5095689;28;20117;-82
2023/03/03 12:17:23;;;;;;;5.70;1.33;;;8.00;99.90;;;;;;5096271;28;20762;-83
2023/03/03 12:20:05;;;;;;;5.90;1.20;;;8.00;99.90;;;;;;5096583;28;20297;-82
2023/03/03 12:22:36;;;;;;;13.30;1.80;;;8.00;99.90;;;;;;5095520;28;20297;-83
2023/03/03 12:25:17;;;;;;;6.67;1.20;;;8.00;99.90;;;;;;5096113;28;20764;-83
2023/03/03 12:28:08;;;;;;;5.37;1.40;;;8.10;99.90;;;;;;5096256;28;20286;-83
2023/03/03 12:31:21;;;;;;;9.17;1.73;;;8.10;99.90;;;;;;5095946;28;20301;-83
2023/03/03 12:34:12;;;;;;;8.20;1.60;;;8.10;99.90;;;;;;5059136;28;20781;-83
2023/03/03 12:36:56;;;;;;;9.13;2.07;;;8.10;99.90;;;;;;5095933;28;20371;-83
2023/03/03 12:40:00;;;;;;;7.23;1.33;;;8.00;99.90;;;;;;5095954;28;20280;-82
2023/03/03 12:42:53;;;;;;;10.50;1.67;;;8.00;99.90;;;;;;5013499;28;20835;-83
2023/03/03 12:45:34;;;;;;;12.60;2.43;;;7.90;99.90;;;;;;5111503;28;20294;-82
2023/03/03 12:48:09;;;;;;;9.97;2.37;;;7.90;99.90;;;;;;5095821;28;20309;-82
2023/03/03 12:50:54;;;;;;;9.20;1.35;;;7.90;99.90;;;;;;5095876;28;20282;-83
2023/03/03 12:53:51;;;;;;;9.18;1.80;;;8.00;99.90;;;;;;5096294;28;20056;-83
2023/03/03 12:56:40;;;;;;;9.93;1.60;;;8.10;99.90;;;;;;5094898;28;20424;-83
2023/03/03 12:59:10;;;;;;;9.00;1.90;;;8.20;99.90;;;;;;5095998;28;20285;-83
2023/03/03 13:01:58;;;;;;;10.60;1.83;;;8.20;99.90;;;;;;5095451;28;20286;-83
2023/03/03 13:04:47;;;;;;;10.03;1.70;;;8.20;99.90;;;;;;5094078;28;20344;-82
2023/03/03 13:07:19;;;;;;;9.80;2.23;;;8.20;99.90;;;;;;5077152;28;20309;-82
2023/03/03 13:10:00;;;;;;;9.33;2.10;;;8.30;99.90;;;;;;5096810;28;20321;-82
2023/03/03 13:12:50;;;;;;;8.50;1.50;;;8.30;99.90;;;;;;5095355;28;20285;-82
2023/03/03 13:15:43;;;;;;;7.90;1.80;;;8.30;99.90;;;;;;5095305;28;20286;-82
2023/03/03 13:18:24;;;;;;;9.30;1.57;;;8.40;99.90;;;;;;5094316;28;20286;-82
2023/03/03 13:21:05;;;;;;;10.93;2.33;;;8.40;99.90;;;;;;5076969;28;20294;-82